createdAt,value
2018-09-18T00:01:22.120Z,70.04
2018-09-18T00:03:51.089Z,70.00
2018-09-18T00:06:20.039Z,70.42
2018-09-18T00:08:48.935Z,70.50
2018-09-18T00:11:19.630Z,70.73
2018-09-18T00:13:48.379Z,70.88
2018-09-18T00:16:17.607Z,70.62
2018-09-18T00:18:46.686Z,71.05
2018-09-18T00:21:15.758Z,71.09
2018-09-18T00:23:44.667Z,71.70
2018-09-18T00:26:13.662Z,71.65
2018-09-18T00:28:42.649Z,71.86
2018-09-18T00:31:11.661Z,71.79
2018-09-18T00:33:40.589Z,71.57
2018-09-18T00:36:09.530Z,71.74
2018-09-18T00:38:38.475Z,71.56
2018-09-18T00:41:07.474Z,71.99
2018-09-18T00:43:36.354Z,71.90
2018-09-18T00:46:05.346Z,71.91
2018-09-18T00:48:34.251Z,71.60
2018-09-18T00:51:03.158Z,71.73
2018-09-18T00:53:32.219Z,71.64
2018-09-18T00:56:01.090Z,71.88
2018-09-18T00:58:30.101Z,71.71
2018-09-18T01:00:59.006Z,71.40
2018-09-18T01:03:27.966Z,71.35
2018-09-18T01:05:56.983Z,71.47
2018-09-18T01:08:26.823Z,71.22
2018-09-18T01:10:56.653Z,71.44
2018-09-18T01:13:25.422Z,71.37
2018-09-18T01:15:54.277Z,71.35
2018-09-18T01:18:23.154Z,71.42
2018-09-18T01:20:52.058Z,71.30
2018-09-18T01:23:21.192Z,71.34
2018-09-18T01:25:50.240Z,71.76
2018-09-18T01:28:19.190Z,71.40
2018-09-18T01:30:47.993Z,71.50
2018-09-18T01:33:16.922Z,71.47
2018-09-18T01:35:45.985Z,71.79
2018-09-18T01:38:14.754Z,71.69
2018-09-18T01:40:43.586Z,72.16
2018-09-18T01:43:12.564Z,72.34
2018-09-18T01:45:41.379Z,72.50
2018-09-18T01:48:10.309Z,72.93
2018-09-18T01:50:39.156Z,73.45
2018-09-18T01:53:08.150Z,73.49
2018-09-18T01:55:37.104Z,73.84
2018-09-18T01:58:06.076Z,73.78
2018-09-18T02:00:35.176Z,73.70
2018-09-18T02:03:04.379Z,73.96
2018-09-18T02:05:33.417Z,73.98
2018-09-18T02:08:02.650Z,74.02
2018-09-18T02:10:31.624Z,74.39
2018-09-18T02:13:00.742Z,74.47
2018-09-18T02:15:29.644Z,74.61
2018-09-18T02:17:58.576Z,74.60
2018-09-18T02:20:27.535Z,74.62
2018-09-18T02:22:56.294Z,74.68
2018-09-18T02:25:25.310Z,74.86
2018-09-18T02:27:54.367Z,74.60
2018-09-18T02:30:23.215Z,75.02
2018-09-18T02:32:52.115Z,75.20
2018-09-18T02:35:21.062Z,74.69
2018-09-18T02:37:50.174Z,74.93
2018-09-18T02:40:19.144Z,74.64
2018-09-18T02:42:48.208Z,74.50
2018-09-18T02:45:17.129Z,74.50
2018-09-18T02:47:46.038Z,74.86
2018-09-18T02:50:14.871Z,75.26
2018-09-18T02:52:43.643Z,75.36
2018-09-18T02:55:12.532Z,75.20
2018-09-18T02:57:41.403Z,75.11
2018-09-18T03:00:10.387Z,75.12
2018-09-18T03:02:40.418Z,75.02
2018-09-18T03:05:09.469Z,74.99
2018-09-18T03:07:38.483Z,74.62
2018-09-18T03:10:07.928Z,74.58
2018-09-18T03:12:36.835Z,74.56
2018-09-18T03:15:06.014Z,74.56
2018-09-18T03:17:35.228Z,74.38
2018-09-18T03:20:04.107Z,74.30
2018-09-18T03:22:33.130Z,74.51
2018-09-18T03:25:02.152Z,74.83
2018-09-18T03:27:31.735Z,75.05
2018-09-18T03:30:00.707Z,75.80
2018-09-18T03:32:29.727Z,76.43
2018-09-18T03:34:58.679Z,76.40
2018-09-18T03:37:27.655Z,76.70
2018-09-18T03:39:56.650Z,76.78
2018-09-18T03:42:25.622Z,77.17
2018-09-18T03:44:54.458Z,76.84
2018-09-18T03:47:23.534Z,76.73
2018-09-18T03:49:53.342Z,76.84
2018-09-18T03:52:22.376Z,76.94
2018-09-18T03:54:51.475Z,76.50
2018-09-18T03:57:20.363Z,76.59
2018-09-18T03:59:49.380Z,76.97
2018-09-18T04:02:18.339Z,76.79
2018-09-18T04:04:47.266Z,77.14
2018-09-18T04:07:16.237Z,77.11
2018-09-18T04:09:45.243Z,76.58
2018-09-18T04:12:14.199Z,76.89
2018-09-18T04:14:43.106Z,77.31
2018-09-18T04:17:13.242Z,77.32
2018-09-18T04:19:42.090Z,77.21
2018-09-18T04:22:10.971Z,77.07
2018-09-18T04:24:40.026Z,76.79
2018-09-18T04:27:08.965Z,77.07
2018-09-18T04:29:37.967Z,76.64
2018-09-18T04:32:06.841Z,76.94
2018-09-18T04:34:35.603Z,76.77
2018-09-18T04:37:04.464Z,77.22
2018-09-18T04:39:33.485Z,77.24
2018-09-18T04:42:02.530Z,77.37
2018-09-18T04:44:31.698Z,77.59
2018-09-18T04:47:00.798Z,77.76
2018-09-18T04:49:29.895Z,78.01
2018-09-18T04:51:58.746Z,77.97
2018-09-18T04:54:34.075Z,79.14
2018-09-18T04:57:03.079Z,79.32
2018-09-18T04:59:32.035Z,79.39
2018-09-18T05:02:00.877Z,79.33
2018-09-18T05:04:29.934Z,79.16
2018-09-18T05:06:58.780Z,79.41
2018-09-18T05:09:27.971Z,79.36
2018-09-18T05:11:56.884Z,78.92
2018-09-18T05:14:26.097Z,78.79
2018-09-18T05:16:55.477Z,78.55
2018-09-18T05:19:24.385Z,78.00
2018-09-18T05:21:53.286Z,77.59
2018-09-18T05:24:22.219Z,77.49
2018-09-18T05:26:51.079Z,77.33
2018-09-18T05:29:20.033Z,77.65
2018-09-18T05:31:49.142Z,77.22
2018-09-18T05:34:18.051Z,77.19
2018-09-18T05:36:47.145Z,77.87
2018-09-18T05:39:16.075Z,78.08
2018-09-18T05:41:45.092Z,78.98
2018-09-18T05:44:14.342Z,79.04
2018-09-18T05:46:43.285Z,78.46
2018-09-18T05:49:12.269Z,78.17
2018-09-18T05:51:41.236Z,77.91
2018-09-18T05:54:10.353Z,78.22
2018-09-18T05:56:39.679Z,78.16
2018-09-18T05:59:08.599Z,78.15
2018-09-18T06:01:37.506Z,77.95
2018-09-18T06:04:06.459Z,77.39
2018-09-18T06:06:35.361Z,76.66
2018-09-18T06:09:05.371Z,76.18
2018-09-18T06:11:34.276Z,76.01
2018-09-18T06:14:03.186Z,75.54
2018-09-18T06:16:32.152Z,75.41
2018-09-18T06:19:01.145Z,75.46
2018-09-18T06:21:30.028Z,75.67
2018-09-18T06:23:59.267Z,75.21
2018-09-18T06:26:28.470Z,75.45
2018-09-18T06:28:57.870Z,75.64
2018-09-18T06:31:26.806Z,75.71
2018-09-18T06:33:55.767Z,75.55
2018-09-18T06:36:24.856Z,75.11
2018-09-18T06:38:53.904Z,74.89
2018-09-18T06:41:22.874Z,74.41
2018-09-18T06:43:52.072Z,74.02
2018-09-18T06:46:21.036Z,73.92
2018-09-18T06:48:49.982Z,73.65
2018-09-18T06:51:19.051Z,73.17
2018-09-18T06:53:47.896Z,73.00
2018-09-18T06:56:16.901Z,73.12
2018-09-18T06:58:45.974Z,73.17
2018-09-18T07:01:14.886Z,72.57
2018-09-18T07:03:43.978Z,71.89
2018-09-18T07:06:12.869Z,71.18
2018-09-18T07:08:42.028Z,71.90
2018-09-18T07:11:10.928Z,71.20
2018-09-18T07:13:40.102Z,70.16
2018-09-18T07:16:09.271Z,70.19
2018-09-18T07:18:38.109Z,69.11
2018-09-18T07:21:07.659Z,66.39
2018-09-18T07:23:36.572Z,68.23
2018-09-18T07:26:05.462Z,67.84
2018-09-18T07:28:34.276Z,68.50
2018-09-18T07:31:03.143Z,67.91
2018-09-18T07:33:32.150Z,66.97
2018-09-18T07:36:01.334Z,67.87
2018-09-18T07:38:30.199Z,66.85
2018-09-18T07:40:59.185Z,66.68
2018-09-18T07:43:28.468Z,66.92
2018-09-18T07:45:57.446Z,67.62
2018-09-18T07:48:30.436Z,67.05
2018-09-18T07:50:59.416Z,67.46
2018-09-18T07:53:28.263Z,67.08
2018-09-18T07:55:57.069Z,61.33
2018-09-18T07:58:26.082Z,65.27
2018-09-18T08:00:55.579Z,63.01
2018-09-18T08:03:24.557Z,64.21
2018-09-18T08:05:53.751Z,64.75
2018-09-18T08:08:22.800Z,63.68
2018-09-18T08:10:51.991Z,64.15
2018-09-18T08:13:21.083Z,62.66
2018-09-18T08:15:50.056Z,61.93
2018-09-18T08:18:18.932Z,61.84
2018-09-18T08:20:48.135Z,62.99
2018-09-18T08:23:16.957Z,61.58
2018-09-18T08:25:46.027Z,59.53
2018-09-18T08:28:14.971Z,59.83
2018-09-18T08:30:43.843Z,61.33
2018-09-18T08:33:12.820Z,61.81
2018-09-18T08:35:41.770Z,60.68
2018-09-18T08:38:10.783Z,60.63
2018-09-18T08:40:39.619Z,58.44
2018-09-18T08:43:08.719Z,59.55
2018-09-18T08:45:37.706Z,59.35
2018-09-18T08:48:06.586Z,58.94
2018-09-18T08:50:35.541Z,57.75
2018-09-18T08:53:04.513Z,58.16
2018-09-18T08:55:33.632Z,58.42
2018-09-18T08:58:02.597Z,58.17
2018-09-18T09:00:31.560Z,56.79
2018-09-18T09:03:00.323Z,57.13
2018-09-18T09:05:29.129Z,57.48
2018-09-18T09:07:58.193Z,56.44
2018-09-18T09:10:27.177Z,55.42
2018-09-18T09:12:56.482Z,55.38
2018-09-18T09:15:25.462Z,55.66
2018-09-18T09:17:54.550Z,54.44
2018-09-18T09:20:23.526Z,55.16
2018-09-18T09:22:52.575Z,54.17
2018-09-18T09:25:21.368Z,54.42
2018-09-18T09:27:50.186Z,54.62
2018-09-18T09:30:19.284Z,52.93
2018-09-18T09:32:48.231Z,52.91
2018-09-18T09:35:17.197Z,52.62
2018-09-18T09:37:46.207Z,51.71
2018-09-18T09:40:15.111Z,52.10
2018-09-18T09:42:44.074Z,50.59
2018-09-18T09:45:12.805Z,50.50
2018-09-18T09:47:41.792Z,49.88
2018-09-18T09:50:10.717Z,49.94
2018-09-18T09:52:39.562Z,50.00
2018-09-18T09:55:08.419Z,50.28
2018-09-18T09:57:37.536Z,50.38
2018-09-18T10:00:07.663Z,50.07
2018-09-18T10:02:41.783Z,50.49
2018-09-18T10:05:10.854Z,51.85
2018-09-18T10:07:39.920Z,50.42
2018-09-18T10:10:09.223Z,50.56
2018-09-18T10:12:39.212Z,50.46
2018-09-18T10:15:08.995Z,50.40
2018-09-18T10:17:38.145Z,49.93
2018-09-18T10:20:07.839Z,50.11
2018-09-18T10:22:37.108Z,49.22
2018-09-18T10:25:06.576Z,49.90
2018-09-18T10:27:35.705Z,48.55
2018-09-18T10:30:05.148Z,49.55
2018-09-18T10:32:34.035Z,47.07
2018-09-18T10:35:03.167Z,47.72
2018-09-18T10:37:32.571Z,48.13
2018-09-18T10:40:01.417Z,49.77
2018-09-18T10:42:30.504Z,47.60
2018-09-18T10:44:59.755Z,47.71
2018-09-18T10:47:28.643Z,47.93
2018-09-18T10:49:57.544Z,47.20
2018-09-18T10:52:26.649Z,47.29
2018-09-18T10:54:55.637Z,46.94
2018-09-18T10:57:24.389Z,44.69
2018-09-18T10:59:53.274Z,44.65
2018-09-18T11:02:22.224Z,44.65
2018-09-18T11:04:51.479Z,44.53
2018-09-18T11:07:20.534Z,44.54
2018-09-18T11:09:49.297Z,44.81
2018-09-18T11:12:18.458Z,44.55
2018-09-18T11:14:47.387Z,44.62
2018-09-18T11:17:16.384Z,44.09
2018-09-18T11:19:45.338Z,44.78
2018-09-18T11:22:14.275Z,43.48
2018-09-18T11:24:43.244Z,43.74
2018-09-18T11:27:12.174Z,43.53
2018-09-18T11:29:41.198Z,42.93
2018-09-18T11:32:10.280Z,42.78
2018-09-18T11:34:39.210Z,42.55
2018-09-18T11:37:08.186Z,43.06
2018-09-18T11:39:36.991Z,40.99
2018-09-18T11:42:06.063Z,40.44
2018-09-18T11:44:35.112Z,40.10
2018-09-18T11:47:03.957Z,38.43
2018-09-18T11:49:32.876Z,38.65
2018-09-18T11:52:01.727Z,37.09
2018-09-18T11:54:31.143Z,36.81
2018-09-18T11:57:00.263Z,36.14
2018-09-18T11:59:29.094Z,35.30
2018-09-18T12:01:58.099Z,35.34
2018-09-18T12:04:26.985Z,35.14
2018-09-18T12:06:55.803Z,33.98
2018-09-18T12:09:24.899Z,33.39
2018-09-18T12:12:00.375Z,32.64
2018-09-18T12:14:29.464Z,31.10
2018-09-18T12:16:58.409Z,31.26
2018-09-18T12:19:27.297Z,29.87
2018-09-18T12:21:56.427Z,30.25
2018-09-18T12:24:25.247Z,29.33
2018-09-18T12:26:54.247Z,27.48
2018-09-18T12:29:23.308Z,28.07
2018-09-18T12:31:52.166Z,27.28
2018-09-18T12:34:21.265Z,27.52
2018-09-18T12:36:50.300Z,27.60
2018-09-18T12:39:19.474Z,26.87
2018-09-18T12:41:48.616Z,26.45
2018-09-18T12:44:17.509Z,26.68
2018-09-18T12:46:46.292Z,24.88
2018-09-18T12:49:15.085Z,24.17
2018-09-18T12:51:43.884Z,24.36
2018-09-18T12:54:12.902Z,26.17
2018-09-18T12:56:42.120Z,24.51
2018-09-18T12:59:11.304Z,25.44
2018-09-18T13:01:40.133Z,27.58
2018-09-18T13:04:09.098Z,27.16
2018-09-18T13:06:38.090Z,24.64
2018-09-18T13:09:09.458Z,24.02
2018-09-18T13:11:38.469Z,22.31
2018-09-18T13:14:08.325Z,22.71
2018-09-18T13:16:37.349Z,21.73
2018-09-18T13:19:06.791Z,23.67
2018-09-18T13:21:35.983Z,23.42
2018-09-18T13:24:05.187Z,23.18
2018-09-18T13:26:34.250Z,22.58
2018-09-18T13:29:03.235Z,21.52
2018-09-18T13:31:32.090Z,21.70
2018-09-18T13:34:01.175Z,21.49
2018-09-18T13:36:30.264Z,20.78
2018-09-18T13:38:59.109Z,20.44
2018-09-18T13:41:28.123Z,19.84
2018-09-18T13:43:57.365Z,20.52
2018-09-18T13:46:26.226Z,22.87
2018-09-18T13:48:55.066Z,24.11
2018-09-18T13:51:24.154Z,24.29
2018-09-18T13:53:53.014Z,23.76
2018-09-18T13:56:21.930Z,22.94
2018-09-18T13:58:51.084Z,22.32
2018-09-18T14:01:20.192Z,22.58
2018-09-18T14:03:49.055Z,23.39
2018-09-18T14:06:18.499Z,23.18
2018-09-18T14:08:47.323Z,24.56
2018-09-18T14:11:16.589Z,25.72
2018-09-18T14:13:45.835Z,26.88
2018-09-18T14:16:14.731Z,27.09
2018-09-18T14:18:43.626Z,28.18
2018-09-18T14:21:12.655Z,28.54
2018-09-18T14:23:41.547Z,29.62
2018-09-18T14:26:10.521Z,29.49
2018-09-18T14:28:39.492Z,29.19
2018-09-18T14:31:08.381Z,30.01
2018-09-18T14:33:37.299Z,29.41
2018-09-18T14:36:06.697Z,30.17
2018-09-18T14:38:35.638Z,30.34
2018-09-18T14:41:04.532Z,28.79
2018-09-18T14:43:33.559Z,30.39
2018-09-18T14:46:02.582Z,31.12
2018-09-18T14:48:31.524Z,30.93
2018-09-18T14:51:00.354Z,30.79
2018-09-18T14:53:29.227Z,31.09
2018-09-18T14:55:58.059Z,32.04
2018-09-18T14:58:27.002Z,32.28
2018-09-18T15:00:56.055Z,31.58
2018-09-18T15:03:24.998Z,31.81
2018-09-18T15:05:54.068Z,31.79
2018-09-18T15:08:22.943Z,32.38
2018-09-18T15:10:51.808Z,32.73
2018-09-18T15:13:20.595Z,33.52
2018-09-18T15:15:49.689Z,32.27
2018-09-18T15:18:18.584Z,33.36
2018-09-18T15:20:47.775Z,33.87
2018-09-18T15:23:16.534Z,34.46
2018-09-18T15:25:45.363Z,33.26
2018-09-18T15:28:14.405Z,34.38
2018-09-18T15:30:43.259Z,33.48
2018-09-18T15:33:12.548Z,33.17
2018-09-18T15:35:41.561Z,33.52
2018-09-18T15:38:10.433Z,34.04
2018-09-18T15:40:39.578Z,34.74
2018-09-18T15:43:08.738Z,33.70
2018-09-18T15:45:38.272Z,34.06
2018-09-18T15:48:07.224Z,33.74
2018-09-18T15:50:36.123Z,33.67
2018-09-18T15:53:05.274Z,33.93
2018-09-18T15:55:34.041Z,33.07
2018-09-18T15:58:03.177Z,33.03
2018-09-18T16:00:32.117Z,32.93
2018-09-18T16:03:01.285Z,34.15
2018-09-18T16:05:30.189Z,33.52
2018-09-18T16:07:59.099Z,33.33
2018-09-18T16:10:28.285Z,34.31
2018-09-18T16:12:57.403Z,33.94
2018-09-18T16:15:26.395Z,34.41
2018-09-18T16:17:55.320Z,34.58
2018-09-18T16:20:24.435Z,34.88
2018-09-18T16:22:53.181Z,34.81
2018-09-18T16:25:22.170Z,35.28
2018-09-18T16:27:51.535Z,35.34
2018-09-18T16:30:20.547Z,35.87
2018-09-18T16:32:49.651Z,36.34
2018-09-18T16:35:18.710Z,36.08
2018-09-18T16:37:47.921Z,36.88
2018-09-18T16:40:17.023Z,36.77
2018-09-18T16:42:46.088Z,36.68
2018-09-18T16:45:14.855Z,37.10
2018-09-18T16:47:43.995Z,37.64
2018-09-18T16:50:12.961Z,37.74
2018-09-18T16:52:41.998Z,38.26
2018-09-18T16:55:11.344Z,38.77
2018-09-18T16:57:40.264Z,38.66
2018-09-18T17:00:09.391Z,39.05
2018-09-18T17:02:38.831Z,39.48
2018-09-18T17:05:08.294Z,39.61
2018-09-18T17:07:37.225Z,39.77
2018-09-18T17:10:06.204Z,39.71
2018-09-18T17:12:35.290Z,39.98
2018-09-18T17:15:04.678Z,40.30
2018-09-18T17:17:33.887Z,40.33
2018-09-18T17:20:02.818Z,40.55
2018-09-18T17:22:31.675Z,40.97
2018-09-18T17:25:00.496Z,40.99
2018-09-18T17:27:29.442Z,41.40
2018-09-18T17:29:58.300Z,41.57
2018-09-18T17:32:27.182Z,41.24
2018-09-18T17:34:56.152Z,41.40
2018-09-18T17:37:25.154Z,41.45
2018-09-18T17:39:54.558Z,41.11
2018-09-18T17:42:23.621Z,41.41
2018-09-18T17:44:52.587Z,41.50
2018-09-18T17:47:21.629Z,41.24
2018-09-18T17:49:50.531Z,41.00
2018-09-18T17:52:19.475Z,41.77
2018-09-18T17:54:48.472Z,42.05
2018-09-18T17:57:17.359Z,42.75
2018-09-18T17:59:46.390Z,42.94
2018-09-18T18:02:15.412Z,43.20
2018-09-18T18:04:44.456Z,43.54
2018-09-18T18:07:13.454Z,43.57
2018-09-18T18:09:42.399Z,43.95
2018-09-18T18:12:11.232Z,44.15
2018-09-18T18:14:40.254Z,44.89
2018-09-18T18:17:09.226Z,45.17
2018-09-18T18:19:38.302Z,45.34
2018-09-18T18:22:07.750Z,44.89
2018-09-18T18:24:36.700Z,45.32
2018-09-18T18:27:05.697Z,45.58
2018-09-18T18:29:34.743Z,45.04
2018-09-18T18:32:03.518Z,45.69
2018-09-18T18:34:32.487Z,45.97
2018-09-18T18:37:01.564Z,45.60
2018-09-18T18:39:30.543Z,45.40
2018-09-18T18:41:59.479Z,45.88
2018-09-18T18:44:28.294Z,46.15
2018-09-18T18:46:57.027Z,46.04
2018-09-18T18:49:26.175Z,46.72
2018-09-18T18:51:55.162Z,47.19
2018-09-18T18:54:24.229Z,47.35
2018-09-18T18:56:53.163Z,46.82
2018-09-18T18:59:22.064Z,47.19
2018-09-18T19:01:50.882Z,47.92
2018-09-18T19:04:19.939Z,47.72
2018-09-18T19:06:48.812Z,47.45
2018-09-18T19:09:17.759Z,47.81
2018-09-18T19:11:46.767Z,47.93
2018-09-18T19:14:15.590Z,48.27
2018-09-18T19:16:44.669Z,48.16
2018-09-18T19:19:13.858Z,48.36
2018-09-18T19:21:42.784Z,49.76
2018-09-18T19:24:12.048Z,49.78
2018-09-18T19:26:40.968Z,49.85
2018-09-18T19:29:09.936Z,50.31
2018-09-18T19:31:38.890Z,50.96
2018-09-18T19:34:07.959Z,50.77
2018-09-18T19:36:36.937Z,50.64
2018-09-18T19:39:08.838Z,50.60
2018-09-18T19:41:37.971Z,50.17
2018-09-18T19:44:07.909Z,50.90
2018-09-18T19:46:37.064Z,50.77
2018-09-18T19:49:05.922Z,51.30
2018-09-18T19:51:34.693Z,50.99
2018-09-18T19:54:03.548Z,50.49
2018-09-18T19:56:32.839Z,52.13
2018-09-18T19:59:01.890Z,51.94
2018-09-18T20:01:30.925Z,53.23
2018-09-18T20:03:59.828Z,53.63
2018-09-18T20:06:28.735Z,53.29
2018-09-18T20:08:57.789Z,54.71
2018-09-18T20:11:26.612Z,54.81
2018-09-18T20:13:55.767Z,55.17
2018-09-18T20:16:24.836Z,55.82
2018-09-18T20:18:53.696Z,55.84
2018-09-18T20:21:22.712Z,55.67
2018-09-18T20:23:51.405Z,56.52
2018-09-18T20:26:20.360Z,56.80
2018-09-18T20:28:49.358Z,56.98
2018-09-18T20:31:18.298Z,57.20
2018-09-18T20:33:47.183Z,57.58
2018-09-18T20:36:16.417Z,57.86
2018-09-18T20:38:45.255Z,58.46
2018-09-18T20:41:14.058Z,57.02
2018-09-18T20:43:43.228Z,58.81
2018-09-18T20:46:12.249Z,59.48
2018-09-18T20:48:41.122Z,59.05
2018-09-18T20:51:09.920Z,59.35
2018-09-18T20:53:38.844Z,59.67
2018-09-18T20:56:07.780Z,60.23
2018-09-18T20:58:36.887Z,60.36
2018-09-18T21:01:06.006Z,60.22
2018-09-18T21:03:34.973Z,60.41
2018-09-18T21:06:03.906Z,59.90
2018-09-18T21:08:33.041Z,59.35
2018-09-18T21:11:01.858Z,59.43
2018-09-18T21:13:30.865Z,59.53
2018-09-18T21:15:59.683Z,58.94
2018-09-18T21:18:28.580Z,59.45
2018-09-18T21:20:57.559Z,59.22
2018-09-18T21:23:26.353Z,59.42
2018-09-18T21:26:03.825Z,59.50
2018-09-18T21:28:33.098Z,59.58
2018-09-18T21:31:02.329Z,59.69
2018-09-18T21:33:31.515Z,60.11
2018-09-18T21:36:00.708Z,60.15
2018-09-18T21:38:30.118Z,59.88
2018-09-18T21:40:58.986Z,60.21
2018-09-18T21:43:28.658Z,60.41
2018-09-18T21:45:57.624Z,59.71
2018-09-18T21:48:26.901Z,59.11
2018-09-18T21:50:55.815Z,59.25
2018-09-18T21:53:24.743Z,60.44
2018-09-18T21:55:54.000Z,60.95
2018-09-18T21:58:23.072Z,61.08
2018-09-18T22:00:52.073Z,60.42
2018-09-18T22:03:21.146Z,60.53
2018-09-18T22:05:50.114Z,60.18
2018-09-18T22:08:19.024Z,60.16
2018-09-18T22:10:47.974Z,60.67
2018-09-18T22:13:16.893Z,60.19
2018-09-18T22:15:46.090Z,59.92
2018-09-18T22:18:14.878Z,60.00
2018-09-18T22:20:44.317Z,60.59
2018-09-18T22:23:13.535Z,60.59
2018-09-18T22:25:42.477Z,60.78
2018-09-18T22:28:11.470Z,61.08
2018-09-18T22:30:40.366Z,61.56
2018-09-18T22:33:09.206Z,61.48
2018-09-18T22:35:38.172Z,61.65
2018-09-18T22:38:07.604Z,61.92
2018-09-18T22:40:36.717Z,61.77
2018-09-18T22:43:05.748Z,62.22
2018-09-18T22:45:34.679Z,62.58
2018-09-18T22:48:03.620Z,62.86
2018-09-18T22:50:32.669Z,63.41
2018-09-18T22:53:01.676Z,63.72
2018-09-18T22:55:30.506Z,64.01
2018-09-18T22:57:59.404Z,63.73
2018-09-18T23:00:28.454Z,64.22
2018-09-18T23:02:57.482Z,64.70
2018-09-18T23:05:26.459Z,64.78
2018-09-18T23:07:55.314Z,65.40
2018-09-18T23:10:24.131Z,65.74
2018-09-18T23:12:53.027Z,65.68
2018-09-18T23:15:21.843Z,66.33
2018-09-18T23:17:50.919Z,66.50
2018-09-18T23:20:19.697Z,66.74
2018-09-18T23:22:48.613Z,66.83
2018-09-18T23:25:17.688Z,67.02
2018-09-18T23:27:46.486Z,67.07
2018-09-18T23:30:15.810Z,67.51
2018-09-18T23:32:45.010Z,67.82
2018-09-18T23:35:13.793Z,68.02
2018-09-18T23:37:42.619Z,67.32
2018-09-18T23:40:11.588Z,67.72
2018-09-18T23:42:41.184Z,68.05
2018-09-18T23:45:10.153Z,67.99
2018-09-18T23:47:39.025Z,68.35
2018-09-18T23:50:07.887Z,68.17
2018-09-18T23:52:36.655Z,68.09
2018-09-18T23:55:05.624Z,68.17
2018-09-18T23:57:34.654Z,68.02
